sensor_id;sensor_type;location;lat;lon;timestamp;P1;durP1;ratioP1;P2;durP2;ratioP2
16254;SDS011;8235;52.198;9.904;2023-04-19T00:01:21;6.20;;;4.93;;
16254;SDS011;8235;52.198;9.904;2023-04-19T00:03:48;5.83;;;4.17;;
16254;SDS011;8235;52.198;9.904;2023-04-19T00:06:18;5.03;;;4.27;;
16254;SDS011;8235;52.198;9.904;2023-04-19T00:08:46;6.63;;;4.80;;
16254;SDS011;8235;52.198;9.904;2023-04-19T00:11:13;4.97;;;4.03;;
16254;SDS011;8235;52.198;9.904;2023-04-19T00:13:41;5.13;;;4.07;;
16254;SDS011;8235;52.198;9.904;2023-04-19T00:16:08;8.07;;;4.20;;
16254;SDS011;8235;52.198;9.904;2023-04-19T00:18:34;5.37;;;3.77;;
16254;SDS011;8235;52.198;9.904;2023-04-19T00:21:02;4.57;;;3.50;;
16254;SDS011;8235;52.198;9.904;2023-04-19T00:23:29;6.63;;;3.60;;
16254;SDS011;8235;52.198;9.904;2023-04-19T00:25:56;4.80;;;3.60;;
16254;SDS011;8235;52.198;9.904;2023-04-19T00:28:23;4.47;;;3.67;;
16254;SDS011;8235;52.198;9.904;2023-04-19T00:30:51;3.97;;;3.20;;
16254;SDS011;8235;52.198;9.904;2023-04-19T00:33:17;4.90;;;3.37;;
16254;SDS011;8235;52.198;9.904;2023-04-19T00:35:44;5.97;;;3.90;;
16254;SDS011;8235;52.198;9.904;2023-04-19T00:38:10;5.97;;;3.10;;
16254;SDS011;8235;52.198;9.904;2023-04-19T00:40:37;3.50;;;3.10;;
16254;SDS011;8235;52.198;9.904;2023-04-19T00:43:03;4.00;;;3.27;;
16254;SDS011;8235;52.198;9.904;2023-04-19T00:45:30;4.07;;;3.13;;
16254;SDS011;8235;52.198;9.904;2023-04-19T00:47:59;4.17;;;3.17;;
16254;SDS011;8235;52.198;9.904;2023-04-19T00:50:26;4.13;;;3.40;;
16254;SDS011;8235;52.198;9.904;2023-04-19T00:52:53;3.90;;;3.10;;
16254;SDS011;8235;52.198;9.904;2023-04-19T00:58:57;3.77;;;2.73;;
16254;SDS011;8235;52.198;9.904;2023-04-19T01:01:24;2.90;;;2.30;;
16254;SDS011;8235;52.198;9.904;2023-04-19T01:03:52;5.37;;;2.53;;
16254;SDS011;8235;52.198;9.904;2023-04-19T01:06:21;3.70;;;2.20;;
16254;SDS011;8235;52.198;9.904;2023-04-19T01:08:48;2.83;;;1.97;;
16254;SDS011;8235;52.198;9.904;2023-04-19T01:11:14;3.20;;;2.50;;
16254;SDS011;8235;52.198;9.904;2023-04-19T01:13:40;4.53;;;2.90;;
16254;SDS011;8235;52.198;9.904;2023-04-19T01:16:07;4.80;;;2.70;;
16254;SDS011;8235;52.198;9.904;2023-04-19T01:18:35;3.30;;;2.67;;
16254;SDS011;8235;52.198;9.904;2023-04-19T01:21:06;3.83;;;2.57;;
16254;SDS011;8235;52.198;9.904;2023-04-19T01:23:34;2.83;;;2.40;;
16254;SDS011;8235;52.198;9.904;2023-04-19T01:26:03;4.53;;;2.70;;
16254;SDS011;8235;52.198;9.904;2023-04-19T01:28:30;4.93;;;2.77;;
16254;SDS011;8235;52.198;9.904;2023-04-19T01:30:57;3.60;;;3.17;;
16254;SDS011;8235;52.198;9.904;2023-04-19T01:33:23;3.20;;;2.43;;
16254;SDS011;8235;52.198;9.904;2023-04-19T01:35:50;5.13;;;3.10;;
16254;SDS011;8235;52.198;9.904;2023-04-19T01:38:16;4.43;;;2.83;;
16254;SDS011;8235;52.198;9.904;2023-04-19T01:40:44;4.73;;;2.57;;
16254;SDS011;8235;52.198;9.904;2023-04-19T01:43:11;3.97;;;2.80;;
16254;SDS011;8235;52.198;9.904;2023-04-19T01:45:38;4.57;;;2.80;;
16254;SDS011;8235;52.198;9.904;2023-04-19T01:48:05;3.93;;;2.90;;
16254;SDS011;8235;52.198;9.904;2023-04-19T01:50:32;2.97;;;2.47;;
16254;SDS011;8235;52.198;9.904;2023-04-19T01:52:59;3.07;;;2.43;;
16254;SDS011;8235;52.198;9.904;2023-04-19T01:55:25;3.83;;;3.03;;
16254;SDS011;8235;52.198;9.904;2023-04-19T01:57:53;4.73;;;3.23;;
16254;SDS011;8235;52.198;9.904;2023-04-19T02:03:30;5.10;;;3.07;;
16254;SDS011;8235;52.198;9.904;2023-04-19T02:05:57;4.40;;;3.00;;
16254;SDS011;8235;52.198;9.904;2023-04-19T02:08:23;3.73;;;2.93;;
16254;SDS011;8235;52.198;9.904;2023-04-19T02:10:50;4.17;;;2.60;;
16254;SDS011;8235;52.198;9.904;2023-04-19T02:13:18;4.87;;;2.80;;
16254;SDS011;8235;52.198;9.904;2023-04-19T02:15:44;6.30;;;3.03;;
16254;SDS011;8235;52.198;9.904;2023-04-19T02:18:11;5.07;;;2.80;;
16254;SDS011;8235;52.198;9.904;2023-04-19T02:20:37;5.57;;;3.07;;
16254;SDS011;8235;52.198;9.904;2023-04-19T02:23:04;5.07;;;2.70;;
16254;SDS011;8235;52.198;9.904;2023-04-19T02:25:30;7.57;;;3.37;;
16254;SDS011;8235;52.198;9.904;2023-04-19T02:27:57;3.43;;;2.60;;
16254;SDS011;8235;52.198;9.904;2023-04-19T02:30:24;4.07;;;3.07;;
16254;SDS011;8235;52.198;9.904;2023-04-19T02:32:51;4.37;;;2.80;;
16254;SDS011;8235;52.198;9.904;2023-04-19T02:35:18;5.43;;;3.80;;
16254;SDS011;8235;52.198;9.904;2023-04-19T02:37:45;3.83;;;2.90;;
16254;SDS011;8235;52.198;9.904;2023-04-19T02:40:12;3.03;;;2.37;;
16254;SDS011;8235;52.198;9.904;2023-04-19T02:42:38;4.73;;;2.60;;
16254;SDS011;8235;52.198;9.904;2023-04-19T02:45:05;4.77;;;2.97;;
16254;SDS011;8235;52.198;9.904;2023-04-19T02:47:34;4.00;;;2.73;;
16254;SDS011;8235;52.198;9.904;2023-04-19T02:50:00;4.20;;;2.80;;
16254;SDS011;8235;52.198;9.904;2023-04-19T02:52:27;6.67;;;3.20;;
16254;SDS011;8235;52.198;9.904;2023-04-19T02:57:27;4.57;;;3.43;;
16254;SDS011;8235;52.198;9.904;2023-04-19T02:59:54;6.30;;;2.70;;
16254;SDS011;8235;52.198;9.904;2023-04-19T03:02:20;5.53;;;3.10;;
16254;SDS011;8235;52.198;9.904;2023-04-19T03:04:48;5.70;;;3.10;;
16254;SDS011;8235;52.198;9.904;2023-04-19T03:07:15;6.00;;;2.77;;
16254;SDS011;8235;52.198;9.904;2023-04-19T03:09:41;5.83;;;3.27;;
16254;SDS011;8235;52.198;9.904;2023-04-19T03:12:08;4.30;;;2.83;;
16254;SDS011;8235;52.198;9.904;2023-04-19T03:14:34;4.33;;;3.10;;
16254;SDS011;8235;52.198;9.904;2023-04-19T03:17:01;4.37;;;3.00;;
16254;SDS011;8235;52.198;9.904;2023-04-19T03:19:28;5.97;;;3.00;;
16254;SDS011;8235;52.198;9.904;2023-04-19T03:21:56;5.00;;;2.93;;
16254;SDS011;8235;52.198;9.904;2023-04-19T03:24:26;7.93;;;3.23;;
16254;SDS011;8235;52.198;9.904;2023-04-19T03:26:53;5.43;;;2.87;;
16254;SDS011;8235;52.198;9.904;2023-04-19T03:29:19;4.23;;;2.80;;
16254;SDS011;8235;52.198;9.904;2023-04-19T03:31:46;6.03;;;3.10;;
16254;SDS011;8235;52.198;9.904;2023-04-19T03:34:13;5.70;;;3.20;;
16254;SDS011;8235;52.198;9.904;2023-04-19T03:36:39;5.87;;;3.70;;
16254;SDS011;8235;52.198;9.904;2023-04-19T03:39:07;3.87;;;2.80;;
16254;SDS011;8235;52.198;9.904;2023-04-19T03:41:33;3.60;;;3.13;;
16254;SDS011;8235;52.198;9.904;2023-04-19T03:44:00;6.37;;;3.47;;
16254;SDS011;8235;52.198;9.904;2023-04-19T03:46:27;3.80;;;2.80;;
16254;SDS011;8235;52.198;9.904;2023-04-19T03:48:55;5.17;;;2.87;;
16254;SDS011;8235;52.198;9.904;2023-04-19T03:51:21;4.30;;;3.17;;
16254;SDS011;8235;52.198;9.904;2023-04-19T03:53:48;4.40;;;3.40;;
16254;SDS011;8235;52.198;9.904;2023-04-19T03:56:16;5.63;;;3.43;;
16254;SDS011;8235;52.198;9.904;2023-04-19T03:58:42;4.07;;;3.10;;
16254;SDS011;8235;52.198;9.904;2023-04-19T04:01:16;4.80;;;3.27;;
16254;SDS011;8235;52.198;9.904;2023-04-19T04:03:43;5.93;;;3.37;;
16254;SDS011;8235;52.198;9.904;2023-04-19T04:06:09;4.43;;;3.40;;
16254;SDS011;8235;52.198;9.904;2023-04-19T04:08:35;5.87;;;3.07;;
16254;SDS011;8235;52.198;9.904;2023-04-19T04:11:02;4.93;;;3.17;;
16254;SDS011;8235;52.198;9.904;2023-04-19T04:13:30;4.17;;;2.97;;
16254;SDS011;8235;52.198;9.904;2023-04-19T04:15:56;3.83;;;2.60;;
16254;SDS011;8235;52.198;9.904;2023-04-19T04:18:23;5.47;;;2.77;;
16254;SDS011;8235;52.198;9.904;2023-04-19T04:20:51;7.20;;;2.60;;
16254;SDS011;8235;52.198;9.904;2023-04-19T04:23:17;4.80;;;2.90;;
16254;SDS011;8235;52.198;9.904;2023-04-19T04:25:45;4.53;;;3.03;;
16254;SDS011;8235;52.198;9.904;2023-04-19T04:28:11;7.00;;;3.20;;
16254;SDS011;8235;52.198;9.904;2023-04-19T04:30:40;5.03;;;3.10;;
16254;SDS011;8235;52.198;9.904;2023-04-19T04:33:06;5.93;;;2.93;;
16254;SDS011;8235;52.198;9.904;2023-04-19T04:35:35;4.47;;;3.37;;
16254;SDS011;8235;52.198;9.904;2023-04-19T04:38:02;5.27;;;3.27;;
16254;SDS011;8235;52.198;9.904;2023-04-19T04:40:29;5.27;;;3.13;;
16254;SDS011;8235;52.198;9.904;2023-04-19T04:42:56;5.30;;;3.43;;
16254;SDS011;8235;52.198;9.904;2023-04-19T04:45:24;5.13;;;3.07;;
16254;SDS011;8235;52.198;9.904;2023-04-19T04:47:56;4.33;;;3.07;;
16254;SDS011;8235;52.198;9.904;2023-04-19T04:50:23;3.87;;;2.53;;
16254;SDS011;8235;52.198;9.904;2023-04-19T04:52:50;5.03;;;2.70;;
16254;SDS011;8235;52.198;9.904;2023-04-19T04:55:17;4.50;;;2.67;;
16254;SDS011;8235;52.198;9.904;2023-04-19T04:57:44;5.03;;;2.97;;
16254;SDS011;8235;52.198;9.904;2023-04-19T05:00:11;3.93;;;2.90;;
16254;SDS011;8235;52.198;9.904;2023-04-19T05:02:38;4.67;;;2.90;;
16254;SDS011;8235;52.198;9.904;2023-04-19T05:05:06;7.60;;;2.70;;
16254;SDS011;8235;52.198;9.904;2023-04-19T05:07:35;4.03;;;2.50;;
16254;SDS011;8235;52.198;9.904;2023-04-19T05:10:01;5.20;;;3.37;;
16254;SDS011;8235;52.198;9.904;2023-04-19T05:12:28;5.83;;;2.77;;
16254;SDS011;8235;52.198;9.904;2023-04-19T05:14:54;3.63;;;3.17;;
16254;SDS011;8235;52.198;9.904;2023-04-19T05:17:20;3.00;;;2.40;;
16254;SDS011;8235;52.198;9.904;2023-04-19T05:19:47;6.37;;;2.67;;
16254;SDS011;8235;52.198;9.904;2023-04-19T05:22:15;6.03;;;2.90;;
16254;SDS011;8235;52.198;9.904;2023-04-19T05:24:42;5.80;;;2.73;;
16254;SDS011;8235;52.198;9.904;2023-04-19T05:27:09;4.70;;;2.80;;
16254;SDS011;8235;52.198;9.904;2023-04-19T05:29:35;4.77;;;2.80;;
16254;SDS011;8235;52.198;9.904;2023-04-19T05:32:02;3.50;;;2.50;;
16254;SDS011;8235;52.198;9.904;2023-04-19T05:34:28;4.97;;;2.90;;
16254;SDS011;8235;52.198;9.904;2023-04-19T05:36:55;3.50;;;2.50;;
16254;SDS011;8235;52.198;9.904;2023-04-19T05:39:23;3.80;;;2.23;;
16254;SDS011;8235;52.198;9.904;2023-04-19T05:41:49;5.03;;;2.70;;
16254;SDS011;8235;52.198;9.904;2023-04-19T05:44:16;4.07;;;2.23;;
16254;SDS011;8235;52.198;9.904;2023-04-19T05:46:42;4.33;;;2.13;;
16254;SDS011;8235;52.198;9.904;2023-04-19T05:49:09;4.33;;;2.30;;
16254;SDS011;8235;52.198;9.904;2023-04-19T05:51:35;3.97;;;2.50;;
16254;SDS011;8235;52.198;9.904;2023-04-19T05:54:02;4.17;;;2.47;;
16254;SDS011;8235;52.198;9.904;2023-04-19T05:56:30;4.13;;;2.10;;
16254;SDS011;8235;52.198;9.904;2023-04-19T05:58:56;4.33;;;2.40;;
16254;SDS011;8235;52.198;9.904;2023-04-19T06:01:25;4.20;;;2.30;;
16254;SDS011;8235;52.198;9.904;2023-04-19T06:03:51;3.17;;;2.10;;
16254;SDS011;8235;52.198;9.904;2023-04-19T06:06:18;2.47;;;1.93;;
16254;SDS011;8235;52.198;9.904;2023-04-19T06:08:47;2.10;;;1.80;;
16254;SDS011;8235;52.198;9.904;2023-04-19T06:11:13;2.13;;;1.70;;
16254;SDS011;8235;52.198;9.904;2023-04-19T06:13:41;4.37;;;2.20;;
16254;SDS011;8235;52.198;9.904;2023-04-19T06:16:09;3.33;;;1.87;;
16254;SDS011;8235;52.198;9.904;2023-04-19T06:18:35;3.87;;;1.80;;
16254;SDS011;8235;52.198;9.904;2023-04-19T06:21:02;3.07;;;1.77;;
16254;SDS011;8235;52.198;9.904;2023-04-19T06:23:30;6.43;;;2.10;;
16254;SDS011;8235;52.198;9.904;2023-04-19T06:25:56;4.00;;;2.07;;
16254;SDS011;8235;52.198;9.904;2023-04-19T06:28:23;2.60;;;1.80;;
16254;SDS011;8235;52.198;9.904;2023-04-19T06:30:51;1.63;;;1.53;;
16254;SDS011;8235;52.198;9.904;2023-04-19T06:33:18;3.33;;;2.10;;
16254;SDS011;8235;52.198;9.904;2023-04-19T06:35:44;2.70;;;1.70;;
16254;SDS011;8235;52.198;9.904;2023-04-19T06:38:10;2.63;;;2.10;;
16254;SDS011;8235;52.198;9.904;2023-04-19T06:40:37;2.73;;;2.07;;
16254;SDS011;8235;52.198;9.904;2023-04-19T06:43:03;4.47;;;1.87;;
16254;SDS011;8235;52.198;9.904;2023-04-19T06:45:30;3.67;;;1.70;;
16254;SDS011;8235;52.198;9.904;2023-04-19T06:47:58;3.80;;;1.63;;
16254;SDS011;8235;52.198;9.904;2023-04-19T06:50:24;3.77;;;1.63;;
16254;SDS011;8235;52.198;9.904;2023-04-19T06:52:51;2.87;;;1.70;;
16254;SDS011;8235;52.198;9.904;2023-04-19T06:55:18;4.17;;;1.67;;
16254;SDS011;8235;52.198;9.904;2023-04-19T06:57:45;2.93;;;1.63;;
16254;SDS011;8235;52.198;9.904;2023-04-19T07:00:12;3.20;;;1.77;;
16254;SDS011;8235;52.198;9.904;2023-04-19T07:02:39;2.37;;;2.03;;
16254;SDS011;8235;52.198;9.904;2023-04-19T07:05:07;4.87;;;1.90;;
16254;SDS011;8235;52.198;9.904;2023-04-19T07:07:34;1.97;;;1.43;;
16254;SDS011;8235;52.198;9.904;2023-04-19T07:10:02;1.90;;;1.27;;
16254;SDS011;8235;52.198;9.904;2023-04-19T07:12:28;2.27;;;1.63;;
16254;SDS011;8235;52.198;9.904;2023-04-19T07:14:55;2.53;;;1.70;;
16254;SDS011;8235;52.198;9.904;2023-04-19T07:17:21;2.50;;;1.80;;
16254;SDS011;8235;52.198;9.904;2023-04-19T07:19:48;2.07;;;1.83;;
16254;SDS011;8235;52.198;9.904;2023-04-19T07:22:16;2.30;;;1.63;;
16254;SDS011;8235;52.198;9.904;2023-04-19T07:24:42;2.57;;;1.93;;
16254;SDS011;8235;52.198;9.904;2023-04-19T07:27:09;2.30;;;1.73;;
16254;SDS011;8235;52.198;9.904;2023-04-19T07:29:36;2.60;;;1.57;;
16254;SDS011;8235;52.198;9.904;2023-04-19T07:32:02;3.07;;;1.40;;
16254;SDS011;8235;52.198;9.904;2023-04-19T07:34:30;3.27;;;1.73;;
16254;SDS011;8235;52.198;9.904;2023-04-19T07:36:56;3.03;;;1.93;;
16254;SDS011;8235;52.198;9.904;2023-04-19T07:39:24;3.07;;;1.80;;
16254;SDS011;8235;52.198;9.904;2023-04-19T07:41:51;3.10;;;1.80;;
16254;SDS011;8235;52.198;9.904;2023-04-19T07:44:17;3.67;;;2.00;;
16254;SDS011;8235;52.198;9.904;2023-04-19T07:46:44;3.93;;;1.50;;
16254;SDS011;8235;52.198;9.904;2023-04-19T07:49:10;4.10;;;1.73;;
16254;SDS011;8235;52.198;9.904;2023-04-19T07:51:37;2.50;;;1.50;;
16254;SDS011;8235;52.198;9.904;2023-04-19T07:54:03;2.97;;;1.77;;
16254;SDS011;8235;52.198;9.904;2023-04-19T07:56:31;2.60;;;1.73;;
16254;SDS011;8235;52.198;9.904;2023-04-19T07:58:58;3.10;;;2.20;;
16254;SDS011;8235;52.198;9.904;2023-04-19T08:01:25;5.83;;;2.03;;
16254;SDS011;8235;52.198;9.904;2023-04-19T08:03:51;3.50;;;1.83;;
16254;SDS011;8235;52.198;9.904;2023-04-19T08:06:18;3.77;;;1.63;;
16254;SDS011;8235;52.198;9.904;2023-04-19T08:08:45;3.17;;;1.90;;
16254;SDS011;8235;52.198;9.904;2023-04-19T08:11:12;3.40;;;1.80;;
16254;SDS011;8235;52.198;9.904;2023-04-19T08:13:40;5.07;;;2.00;;
16254;SDS011;8235;52.198;9.904;2023-04-19T08:16:06;3.50;;;1.80;;
16254;SDS011;8235;52.198;9.904;2023-04-19T08:18:33;2.93;;;2.30;;
16254;SDS011;8235;52.198;9.904;2023-04-19T08:21:00;3.37;;;1.90;;
16254;SDS011;8235;52.198;9.904;2023-04-19T08:23:26;4.43;;;2.37;;
16254;SDS011;8235;52.198;9.904;2023-04-19T08:25:53;2.73;;;1.93;;
16254;SDS011;8235;52.198;9.904;2023-04-19T08:28:19;2.20;;;2.00;;
16254;SDS011;8235;52.198;9.904;2023-04-19T08:30:47;3.33;;;2.00;;
16254;SDS011;8235;52.198;9.904;2023-04-19T08:33:14;3.37;;;1.97;;
16254;SDS011;8235;52.198;9.904;2023-04-19T08:35:40;2.70;;;1.87;;
16254;SDS011;8235;52.198;9.904;2023-04-19T08:38:07;2.33;;;1.67;;
16254;SDS011;8235;52.198;9.904;2023-04-19T08:40:34;2.20;;;1.90;;
16254;SDS011;8235;52.198;9.904;2023-04-19T08:43:03;2.00;;;1.53;;
16254;SDS011;8235;52.198;9.904;2023-04-19T08:45:30;4.03;;;1.87;;
16254;SDS011;8235;52.198;9.904;2023-04-19T08:48:00;4.03;;;2.47;;
16254;SDS011;8235;52.198;9.904;2023-04-19T08:50:26;2.90;;;2.17;;
16254;SDS011;8235;52.198;9.904;2023-04-19T08:52:53;3.47;;;1.80;;
16254;SDS011;8235;52.198;9.904;2023-04-19T08:55:20;1.87;;;1.70;;
16254;SDS011;8235;52.198;9.904;2023-04-19T08:57:47;3.23;;;1.73;;
16254;SDS011;8235;52.198;9.904;2023-04-19T09:00:14;2.27;;;1.70;;
16254;SDS011;8235;52.198;9.904;2023-04-19T09:02:45;4.67;;;2.33;;
16254;SDS011;8235;52.198;9.904;2023-04-19T09:05:14;5.13;;;2.10;;
16254;SDS011;8235;52.198;9.904;2023-04-19T09:07:42;3.93;;;2.00;;
16254;SDS011;8235;52.198;9.904;2023-04-19T09:10:09;2.30;;;1.50;;
16254;SDS011;8235;52.198;9.904;2023-04-19T09:12:37;4.10;;;1.90;;
16254;SDS011;8235;52.198;9.904;2023-04-19T09:15:05;2.00;;;1.80;;
16254;SDS011;8235;52.198;9.904;2023-04-19T09:17:33;2.60;;;1.90;;
16254;SDS011;8235;52.198;9.904;2023-04-19T09:19:59;2.47;;;2.00;;
16254;SDS011;8235;52.198;9.904;2023-04-19T09:22:27;2.53;;;1.67;;
16254;SDS011;8235;52.198;9.904;2023-04-19T09:24:54;2.53;;;1.87;;
16254;SDS011;8235;52.198;9.904;2023-04-19T09:27:24;1.87;;;1.57;;
16254;SDS011;8235;52.198;9.904;2023-04-19T09:29:53;3.00;;;1.90;;
16254;SDS011;8235;52.198;9.904;2023-04-19T09:32:20;2.27;;;1.70;;
16254;SDS011;8235;52.198;9.904;2023-04-19T09:34:50;3.07;;;1.67;;
16254;SDS011;8235;52.198;9.904;2023-04-19T09:37:18;2.03;;;1.83;;
16254;SDS011;8235;52.198;9.904;2023-04-19T09:39:46;3.70;;;1.80;;
16254;SDS011;8235;52.198;9.904;2023-04-19T09:42:12;2.13;;;1.77;;
16254;SDS011;8235;52.198;9.904;2023-04-19T09:44:38;3.43;;;1.70;;
16254;SDS011;8235;52.198;9.904;2023-04-19T09:47:20;5.30;;;1.83;;
16254;SDS011;8235;52.198;9.904;2023-04-19T09:49:48;4.10;;;1.83;;
16254;SDS011;8235;52.198;9.904;2023-04-19T09:52:30;3.77;;;1.97;;
16254;SDS011;8235;52.198;9.904;2023-04-19T09:54:58;1.40;;;1.20;;
16254;SDS011;8235;52.198;9.904;2023-04-19T09:57:27;2.37;;;1.53;;
16254;SDS011;8235;52.198;9.904;2023-04-19T09:59:53;2.13;;;1.63;;
16254;SDS011;8235;52.198;9.904;2023-04-19T10:02:20;3.00;;;1.37;;
16254;SDS011;8235;52.198;9.904;2023-04-19T10:04:49;2.13;;;1.50;;
16254;SDS011;8235;52.198;9.904;2023-04-19T10:07:16;2.00;;;1.80;;
16254;SDS011;8235;52.198;9.904;2023-04-19T10:09:43;2.60;;;1.40;;
16254;SDS011;8235;52.198;9.904;2023-04-19T10:12:13;2.80;;;1.43;;
16254;SDS011;8235;52.198;9.904;2023-04-19T10:14:40;2.57;;;1.60;;
16254;SDS011;8235;52.198;9.904;2023-04-19T10:17:08;2.40;;;1.47;;
16254;SDS011;8235;52.198;9.904;2023-04-19T10:19:35;2.63;;;1.53;;
16254;SDS011;8235;52.198;9.904;2023-04-19T10:22:03;3.30;;;1.60;;
16254;SDS011;8235;52.198;9.904;2023-04-19T10:24:32;2.70;;;1.50;;
16254;SDS011;8235;52.198;9.904;2023-04-19T10:27:06;1.57;;;1.17;;
16254;SDS011;8235;52.198;9.904;2023-04-19T10:29:55;2.83;;;1.83;;
16254;SDS011;8235;52.198;9.904;2023-04-19T10:32:22;1.87;;;1.40;;
16254;SDS011;8235;52.198;9.904;2023-04-19T10:34:51;3.00;;;1.50;;
16254;SDS011;8235;52.198;9.904;2023-04-19T10:37:20;4.20;;;1.40;;
16254;SDS011;8235;52.198;9.904;2023-04-19T10:39:48;2.60;;;1.20;;
16254;SDS011;8235;52.198;9.904;2023-04-19T10:42:15;1.50;;;1.17;;
16254;SDS011;8235;52.198;9.904;2023-04-19T10:44:42;1.57;;;1.27;;
16254;SDS011;8235;52.198;9.904;2023-04-19T10:47:49;2.07;;;1.00;;
16254;SDS011;8235;52.198;9.904;2023-04-19T10:50:17;1.83;;;1.30;;
16254;SDS011;8235;52.198;9.904;2023-04-19T10:52:43;2.07;;;1.40;;
16254;SDS011;8235;52.198;9.904;2023-04-19T10:55:10;2.70;;;1.40;;
16254;SDS011;8235;52.198;9.904;2023-04-19T11:00:29;2.77;;;1.10;;
16254;SDS011;8235;52.198;9.904;2023-04-19T11:02:58;2.27;;;1.10;;
16254;SDS011;8235;52.198;9.904;2023-04-19T11:05:25;2.63;;;1.30;;
16254;SDS011;8235;52.198;9.904;2023-04-19T11:07:52;1.90;;;1.47;;
16254;SDS011;8235;52.198;9.904;2023-04-19T11:10:27;2.30;;;1.23;;
16254;SDS011;8235;52.198;9.904;2023-04-19T11:12:54;2.60;;;1.00;;
16254;SDS011;8235;52.198;9.904;2023-04-19T11:15:21;1.07;;;0.83;;
16254;SDS011;8235;52.198;9.904;2023-04-19T11:17:48;1.63;;;1.20;;
16254;SDS011;8235;52.198;9.904;2023-04-19T11:20:17;2.53;;;1.33;;
16254;SDS011;8235;52.198;9.904;2023-04-19T11:22:48;2.33;;;1.20;;
16254;SDS011;8235;52.198;9.904;2023-04-19T11:25:15;3.13;;;1.77;;
16254;SDS011;8235;52.198;9.904;2023-04-19T11:27:43;2.37;;;1.50;;
16254;SDS011;8235;52.198;9.904;2023-04-19T11:30:12;1.97;;;1.40;;
16254;SDS011;8235;52.198;9.904;2023-04-19T11:32:43;2.67;;;1.53;;
16254;SDS011;8235;52.198;9.904;2023-04-19T11:35:12;1.43;;;1.33;;
16254;SDS011;8235;52.198;9.904;2023-04-19T11:37:40;1.63;;;1.53;;
16254;SDS011;8235;52.198;9.904;2023-04-19T11:40:07;2.67;;;1.43;;
16254;SDS011;8235;52.198;9.904;2023-04-19T11:42:34;2.07;;;1.47;;
16254;SDS011;8235;52.198;9.904;2023-04-19T11:45:01;1.70;;;1.40;;
16254;SDS011;8235;52.198;9.904;2023-04-19T11:47:28;3.13;;;1.60;;
16254;SDS011;8235;52.198;9.904;2023-04-19T11:49:54;4.97;;;1.53;;
16254;SDS011;8235;52.198;9.904;2023-04-19T11:52:21;3.03;;;1.60;;
16254;SDS011;8235;52.198;9.904;2023-04-19T11:54:51;2.90;;;1.50;;
16254;SDS011;8235;52.198;9.904;2023-04-19T11:57:27;3.50;;;1.33;;
16254;SDS011;8235;52.198;9.904;2023-04-19T12:00:01;1.80;;;1.50;;
16254;SDS011;8235;52.198;9.904;2023-04-19T12:02:35;2.87;;;2.20;;
16254;SDS011;8235;52.198;9.904;2023-04-19T12:05:06;3.73;;;1.67;;
16254;SDS011;8235;52.198;9.904;2023-04-19T12:07:34;1.57;;;1.30;;
16254;SDS011;8235;52.198;9.904;2023-04-19T12:10:08;2.30;;;1.40;;
16254;SDS011;8235;52.198;9.904;2023-04-19T12:12:36;3.67;;;1.70;;
16254;SDS011;8235;52.198;9.904;2023-04-19T12:15:03;3.73;;;1.60;;
16254;SDS011;8235;52.198;9.904;2023-04-19T12:17:30;3.23;;;1.70;;
16254;SDS011;8235;52.198;9.904;2023-04-19T12:19:56;1.93;;;1.27;;
16254;SDS011;8235;52.198;9.904;2023-04-19T12:22:23;3.00;;;1.50;;
16254;SDS011;8235;52.198;9.904;2023-04-19T12:24:50;2.23;;;1.70;;
16254;SDS011;8235;52.198;9.904;2023-04-19T12:27:18;2.40;;;1.33;;
16254;SDS011;8235;52.198;9.904;2023-04-19T12:29:49;3.33;;;1.60;;
16254;SDS011;8235;52.198;9.904;2023-04-19T12:32:16;2.37;;;1.67;;
16254;SDS011;8235;52.198;9.904;2023-04-19T12:34:42;4.57;;;1.70;;
16254;SDS011;8235;52.198;9.904;2023-04-19T12:37:09;2.40;;;1.30;;
16254;SDS011;8235;52.198;9.904;2023-04-19T12:39:35;2.70;;;1.73;;
16254;SDS011;8235;52.198;9.904;2023-04-19T12:42:02;3.33;;;1.80;;
16254;SDS011;8235;52.198;9.904;2023-04-19T12:44:31;2.23;;;1.80;;
16254;SDS011;8235;52.198;9.904;2023-04-19T12:46:57;2.90;;;1.97;;
16254;SDS011;8235;52.198;9.904;2023-04-19T12:49:24;2.63;;;2.00;;
16254;SDS011;8235;52.198;9.904;2023-04-19T12:51:50;3.63;;;2.20;;
16254;SDS011;8235;52.198;9.904;2023-04-19T12:54:17;2.17;;;1.73;;
16254;SDS011;8235;52.198;9.904;2023-04-19T12:56:43;4.70;;;1.90;;
16254;SDS011;8235;52.198;9.904;2023-04-19T12:59:10;2.50;;;1.87;;
16254;SDS011;8235;52.198;9.904;2023-04-19T13:01:38;2.43;;;2.00;;
16254;SDS011;8235;52.198;9.904;2023-04-19T13:04:04;2.93;;;1.70;;
16254;SDS011;8235;52.198;9.904;2023-04-19T13:06:35;2.33;;;1.70;;
16254;SDS011;8235;52.198;9.904;2023-04-19T13:09:02;2.03;;;1.63;;
16254;SDS011;8235;52.198;9.904;2023-04-19T13:11:28;2.37;;;1.70;;
16254;SDS011;8235;52.198;9.904;2023-04-19T13:13:55;2.30;;;2.10;;
16254;SDS011;8235;52.198;9.904;2023-04-19T13:16:21;5.10;;;1.83;;
16254;SDS011;8235;52.198;9.904;2023-04-19T13:18:49;2.40;;;1.60;;
16254;SDS011;8235;52.198;9.904;2023-04-19T13:21:16;2.73;;;1.83;;
16254;SDS011;8235;52.198;9.904;2023-04-19T13:23:43;3.20;;;1.87;;
16254;SDS011;8235;52.198;9.904;2023-04-19T13:26:09;3.40;;;1.90;;
16254;SDS011;8235;52.198;9.904;2023-04-19T13:28:36;1.70;;;1.60;;
16254;SDS011;8235;52.198;9.904;2023-04-19T13:31:04;3.03;;;1.77;;
16254;SDS011;8235;52.198;9.904;2023-04-19T13:33:30;2.97;;;1.87;;
16254;SDS011;8235;52.198;9.904;2023-04-19T13:35:58;3.93;;;1.90;;
16254;SDS011;8235;52.198;9.904;2023-04-19T13:38:25;3.60;;;2.17;;
16254;SDS011;8235;52.198;9.904;2023-04-19T13:40:51;2.67;;;2.30;;
16254;SDS011;8235;52.198;9.904;2023-04-19T13:43:18;3.03;;;2.10;;
16254;SDS011;8235;52.198;9.904;2023-04-19T13:45:44;3.77;;;2.27;;
16254;SDS011;8235;52.198;9.904;2023-04-19T13:48:11;2.60;;;2.40;;
16254;SDS011;8235;52.198;9.904;2023-04-19T13:50:37;4.53;;;2.37;;
16254;SDS011;8235;52.198;9.904;2023-04-19T13:53:05;4.87;;;2.77;;
16254;SDS011;8235;52.198;9.904;2023-04-19T13:55:32;3.87;;;2.20;;
16254;SDS011;8235;52.198;9.904;2023-04-19T13:57:58;2.70;;;1.93;;
16254;SDS011;8235;52.198;9.904;2023-04-19T14:00:25;6.13;;;2.33;;
16254;SDS011;8235;52.198;9.904;2023-04-19T14:02:53;2.77;;;2.20;;
16254;SDS011;8235;52.198;9.904;2023-04-19T14:05:20;3.27;;;2.33;;
16254;SDS011;8235;52.198;9.904;2023-04-19T14:07:46;3.73;;;2.57;;
16254;SDS011;8235;52.198;9.904;2023-04-19T14:10:14;2.77;;;2.30;;
16254;SDS011;8235;52.198;9.904;2023-04-19T14:12:41;3.10;;;2.37;;
16254;SDS011;8235;52.198;9.904;2023-04-19T14:15:09;4.33;;;2.70;;
16254;SDS011;8235;52.198;9.904;2023-04-19T14:17:36;3.77;;;2.70;;
16254;SDS011;8235;52.198;9.904;2023-04-19T14:20:03;3.47;;;2.37;;
16254;SDS011;8235;52.198;9.904;2023-04-19T14:22:30;3.73;;;2.53;;
16254;SDS011;8235;52.198;9.904;2023-04-19T14:24:58;3.50;;;2.23;;
16254;SDS011;8235;52.198;9.904;2023-04-19T14:27:25;3.00;;;2.13;;
16254;SDS011;8235;52.198;9.904;2023-04-19T14:29:52;4.03;;;1.90;;
16254;SDS011;8235;52.198;9.904;2023-04-19T14:32:18;3.23;;;2.20;;
16254;SDS011;8235;52.198;9.904;2023-04-19T14:34:45;5.23;;;2.63;;
16254;SDS011;8235;52.198;9.904;2023-04-19T14:37:11;3.20;;;2.17;;
16254;SDS011;8235;52.198;9.904;2023-04-19T14:39:38;3.50;;;1.90;;
16254;SDS011;8235;52.198;9.904;2023-04-19T14:42:04;6.27;;;2.63;;
16254;SDS011;8235;52.198;9.904;2023-04-19T14:44:32;4.27;;;2.03;;
16254;SDS011;8235;52.198;9.904;2023-04-19T14:46:59;4.00;;;2.30;;
16254;SDS011;8235;52.198;9.904;2023-04-19T14:49:25;2.77;;;2.00;;
16254;SDS011;8235;52.198;9.904;2023-04-19T14:51:52;2.83;;;1.77;;
16254;SDS011;8235;52.198;9.904;2023-04-19T14:54:18;3.37;;;1.70;;
16254;SDS011;8235;52.198;9.904;2023-04-19T14:56:45;7.50;;;2.33;;
16254;SDS011;8235;52.198;9.904;2023-04-19T14:59:11;2.43;;;1.80;;
16254;SDS011;8235;52.198;9.904;2023-04-19T15:01:39;3.30;;;2.07;;
16254;SDS011;8235;52.198;9.904;2023-04-19T15:04:06;5.87;;;2.67;;
16254;SDS011;8235;52.198;9.904;2023-04-19T15:06:32;5.10;;;2.03;;
16254;SDS011;8235;52.198;9.904;2023-04-19T15:08:59;4.77;;;2.50;;
16254;SDS011;8235;52.198;9.904;2023-04-19T15:11:25;4.57;;;2.10;;
16254;SDS011;8235;52.198;9.904;2023-04-19T15:13:52;4.93;;;2.40;;